Terminal Aerodrome Forecast
Issued by NWS

Home | Current Version | Previous Version | Graphics & Text | Print | Product List | Glossary On
Versions: 1 2 3 4 5 6 7 8 9 10 11 12 13 14 15 16 17 18 19 20 21 22 23 24
000
FTUS43 KGRB 141142
TAFCWA
TAF
KCWA 141142Z 1412/1512 32003KT P6SM SCT024
      TEMPO 1413/1417 BKN024
     FM141700 28007KT P6SM BKN028
     FM150000 27005KT P6SM SCT012 BKN025
      TEMPO 1502/1506 3SM -SN BKN012
     FM150600 29007KT P6SM -SHSN BKN030=

USA.gov is the U.S. government's official web portal to all federal, state and local government web resources and services.